sensor_id;sensor_type;location;lat;lon;timestamp;pressure;altitude;pressure_sealevel;temperature;humidity
21395;BME280;10858;42.714;23.180;2023-04-27T00:00:24;94099.38;;;8.46;53.66
21395;BME280;10858;42.714;23.180;2023-04-27T00:02:51;94096.34;;;8.50;54.18
21395;BME280;10858;42.714;23.180;2023-04-27T00:05:20;94098.28;;;8.48;54.47
21395;BME280;10858;42.714;23.180;2023-04-27T00:07:49;94102.34;;;8.32;54.29
21395;BME280;10858;42.714;23.180;2023-04-27T00:10:15;94109.47;;;8.20;55.32
21395;BME280;10858;42.714;23.180;2023-04-27T00:12:41;94107.47;;;8.13;54.58
21395;BME280;10858;42.714;23.180;2023-04-27T00:15:08;94109.53;;;8.09;55.54
21395;BME280;10858;42.714;23.180;2023-04-27T00:17:34;94113.13;;;8.08;55.64
21395;BME280;10858;42.714;23.180;2023-04-27T00:20:01;94120.06;;;7.89;55.82
21395;BME280;10858;42.714;23.180;2023-04-27T00:22:27;94114.41;;;7.93;55.93
21395;BME280;10858;42.714;23.180;2023-04-27T00:24:53;94118.41;;;7.77;55.69
21395;BME280;10858;42.714;23.180;2023-04-27T00:27:19;94106.72;;;7.90;56.26
21395;BME280;10858;42.714;23.180;2023-04-27T00:29:46;94112.50;;;7.84;55.64
21395;BME280;10858;42.714;23.180;2023-04-27T00:32:12;94110.16;;;7.70;56.44
21395;BME280;10858;42.714;23.180;2023-04-27T00:34:38;94108.94;;;7.74;55.85
21395;BME280;10858;42.714;23.180;2023-04-27T00:37:04;94107.41;;;7.60;56.30
21395;BME280;10858;42.714;23.180;2023-04-27T00:39:33;94110.41;;;7.56;56.00
21395;BME280;10858;42.714;23.180;2023-04-27T00:42:01;94110.19;;;7.59;57.04
21395;BME280;10858;42.714;23.180;2023-04-27T00:44:27;94113.78;;;7.58;56.61
21395;BME280;10858;42.714;23.180;2023-04-27T00:46:53;94111.84;;;7.60;56.93
21395;BME280;10858;42.714;23.180;2023-04-27T00:49:20;94116.31;;;7.48;56.62
21395;BME280;10858;42.714;23.180;2023-04-27T00:51:50;94115.22;;;7.62;56.13
21395;BME280;10858;42.714;23.180;2023-04-27T00:54:19;94117.66;;;7.43;56.13
21395;BME280;10858;42.714;23.180;2023-04-27T00:56:55;94118.38;;;7.34;56.69
21395;BME280;10858;42.714;23.180;2023-04-27T00:59:21;94111.69;;;7.41;57.29
21395;BME280;10858;42.714;23.180;2023-04-27T01:01:48;94116.22;;;7.39;56.79
21395;BME280;10858;42.714;23.180;2023-04-27T01:04:15;94117.22;;;7.27;56.78
21395;BME280;10858;42.714;23.180;2023-04-27T01:06:44;94119.00;;;7.37;57.28
21395;BME280;10858;42.714;23.180;2023-04-27T01:09:10;94115.78;;;7.23;57.61
21395;BME280;10858;42.714;23.180;2023-04-27T01:11:37;94117.13;;;7.17;57.09
21395;BME280;10858;42.714;23.180;2023-04-27T01:14:04;94116.72;;;7.22;57.22
21395;BME280;10858;42.714;23.180;2023-04-27T01:16:34;94116.13;;;7.18;57.73
21395;BME280;10858;42.714;23.180;2023-04-27T01:19:00;94121.28;;;7.20;57.58
21395;BME280;10858;42.714;23.180;2023-04-27T01:21:27;94119.38;;;7.22;58.21
21395;BME280;10858;42.714;23.180;2023-04-27T01:23:53;94132.56;;;7.11;57.79
21395;BME280;10858;42.714;23.180;2023-04-27T01:26:20;94130.88;;;7.10;57.97
21395;BME280;10858;42.714;23.180;2023-04-27T01:28:47;94127.78;;;7.05;58.12
21395;BME280;10858;42.714;23.180;2023-04-27T01:31:14;94135.09;;;7.01;58.06
21395;BME280;10858;42.714;23.180;2023-04-27T01:33:40;94131.84;;;6.98;58.13
21395;BME280;10858;42.714;23.180;2023-04-27T01:36:08;94123.34;;;7.05;58.28
21395;BME280;10858;42.714;23.180;2023-04-27T01:38:41;94134.00;;;6.93;58.17
21395;BME280;10858;42.714;23.180;2023-04-27T01:41:08;94128.84;;;6.80;58.71
21395;BME280;10858;42.714;23.180;2023-04-27T01:43:35;94132.94;;;6.95;58.32
21395;BME280;10858;42.714;23.180;2023-04-27T01:46:08;94136.88;;;6.89;58.48
21395;BME280;10858;42.714;23.180;2023-04-27T01:48:35;94133.53;;;6.87;58.39
21395;BME280;10858;42.714;23.180;2023-04-27T01:51:02;94138.94;;;6.97;57.63
21395;BME280;10858;42.714;23.180;2023-04-27T01:53:29;94141.22;;;6.91;57.56
21395;BME280;10858;42.714;23.180;2023-04-27T01:55:56;94133.41;;;6.78;58.10
21395;BME280;10858;42.714;23.180;2023-04-27T01:58:22;94135.44;;;6.85;58.21
21395;BME280;10858;42.714;23.180;2023-04-27T02:00:48;94139.03;;;6.84;58.20
21395;BME280;10858;42.714;23.180;2023-04-27T02:03:15;94135.22;;;6.88;58.84
21395;BME280;10858;42.714;23.180;2023-04-27T02:05:41;94144.78;;;6.78;58.36
21395;BME280;10858;42.714;23.180;2023-04-27T02:08:07;94135.19;;;6.66;59.42
21395;BME280;10858;42.714;23.180;2023-04-27T02:10:35;94136.75;;;6.69;59.87
21395;BME280;10858;42.714;23.180;2023-04-27T02:13:01;94136.63;;;6.70;59.62
21395;BME280;10858;42.714;23.180;2023-04-27T02:15:28;94144.41;;;6.61;59.57
21395;BME280;10858;42.714;23.180;2023-04-27T02:17:54;94140.22;;;6.58;59.87
21395;BME280;10858;42.714;23.180;2023-04-27T02:20:20;94140.22;;;6.58;60.29
21395;BME280;10858;42.714;23.180;2023-04-27T02:22:47;94142.25;;;6.66;59.95
21395;BME280;10858;42.714;23.180;2023-04-27T02:25:14;94136.50;;;6.72;59.56
21395;BME280;10858;42.714;23.180;2023-04-27T02:27:41;94146.94;;;6.73;58.68
21395;BME280;10858;42.714;23.180;2023-04-27T02:30:08;94142.88;;;6.92;58.53
21395;BME280;10858;42.714;23.180;2023-04-27T02:32:35;94147.56;;;6.99;57.65
21395;BME280;10858;42.714;23.180;2023-04-27T02:35:02;94146.97;;;7.07;57.97
21395;BME280;10858;42.714;23.180;2023-04-27T02:37:28;94152.94;;;7.20;57.25
21395;BME280;10858;42.714;23.180;2023-04-27T02:39:55;94159.78;;;7.22;56.93
21395;BME280;10858;42.714;23.180;2023-04-27T02:42:21;94153.78;;;7.20;56.74
21395;BME280;10858;42.714;23.180;2023-04-27T02:44:48;94148.28;;;7.23;57.19
21395;BME280;10858;42.714;23.180;2023-04-27T02:47:14;94157.88;;;7.02;56.41
21395;BME280;10858;42.714;23.180;2023-04-27T02:49:41;94157.16;;;6.89;57.89
21395;BME280;10858;42.714;23.180;2023-04-27T02:52:07;94158.94;;;6.88;57.90
21395;BME280;10858;42.714;23.180;2023-04-27T02:54:33;94165.88;;;6.89;57.32
21395;BME280;10858;42.714;23.180;2023-04-27T02:57:00;94159.41;;;6.82;58.92
21395;BME280;10858;42.714;23.180;2023-04-27T02:59:27;94161.31;;;6.80;58.33
21395;BME280;10858;42.714;23.180;2023-04-27T03:01:53;94165.75;;;6.80;58.89
21395;BME280;10858;42.714;23.180;2023-04-27T03:04:19;94171.03;;;6.80;57.83
21395;BME280;10858;42.714;23.180;2023-04-27T03:06:45;94172.81;;;6.68;59.28
21395;BME280;10858;42.714;23.180;2023-04-27T03:09:12;94165.25;;;6.53;59.30
21395;BME280;10858;42.714;23.180;2023-04-27T03:11:39;94175.78;;;6.53;59.58
21395;BME280;10858;42.714;23.180;2023-04-27T03:14:05;94173.16;;;6.53;59.94
21395;BME280;10858;42.714;23.180;2023-04-27T03:16:34;94174.94;;;6.41;60.96
21395;BME280;10858;42.714;23.180;2023-04-27T03:19:01;94172.94;;;6.21;60.49
21395;BME280;10858;42.714;23.180;2023-04-27T03:21:27;94180.56;;;6.13;61.31
21395;BME280;10858;42.714;23.180;2023-04-27T03:23:53;94177.44;;;6.08;62.38
21395;BME280;10858;42.714;23.180;2023-04-27T03:26:19;94187.41;;;5.92;62.30
21395;BME280;10858;42.714;23.180;2023-04-27T03:28:46;94184.34;;;5.62;63.35
21395;BME280;10858;42.714;23.180;2023-04-27T03:31:14;94178.97;;;5.63;63.55
21395;BME280;10858;42.714;23.180;2023-04-27T03:33:41;94192.25;;;5.62;62.97
21395;BME280;10858;42.714;23.180;2023-04-27T03:36:07;94186.47;;;5.57;62.94
21395;BME280;10858;42.714;23.180;2023-04-27T03:38:35;94191.09;;;5.53;63.26
21395;BME280;10858;42.714;23.180;2023-04-27T03:41:02;94189.47;;;5.40;63.92
21395;BME280;10858;42.714;23.180;2023-04-27T03:43:28;94191.97;;;5.41;63.58
21395;BME280;10858;42.714;23.180;2023-04-27T03:45:55;94191.75;;;5.57;63.84
21395;BME280;10858;42.714;23.180;2023-04-27T03:48:21;94199.09;;;5.52;63.33
21395;BME280;10858;42.714;23.180;2023-04-27T03:50:48;94197.00;;;5.57;63.61
21395;BME280;10858;42.714;23.180;2023-04-27T03:53:14;94202.03;;;5.60;64.35
21395;BME280;10858;42.714;23.180;2023-04-27T03:55:42;94214.97;;;5.63;63.15
21395;BME280;10858;42.714;23.180;2023-04-27T03:58:09;94210.00;;;5.71;63.15
21395;BME280;10858;42.714;23.180;2023-04-27T04:00:36;94207.25;;;5.85;62.29
21395;BME280;10858;42.714;23.180;2023-04-27T04:03:03;94219.09;;;6.14;61.97
21395;BME280;10858;42.714;23.180;2023-04-27T04:05:30;94222.53;;;6.03;61.29
21395;BME280;10858;42.714;23.180;2023-04-27T04:07:59;94221.69;;;6.27;60.40
21395;BME280;10858;42.714;23.180;2023-04-27T04:10:25;94229.16;;;6.78;57.74
21395;BME280;10858;42.714;23.180;2023-04-27T04:12:52;94228.94;;;7.70;55.20
21395;BME280;10858;42.714;23.180;2023-04-27T04:15:18;94230.06;;;8.53;53.05
21395;BME280;10858;42.714;23.180;2023-04-27T04:17:45;94227.66;;;9.53;51.64
21395;BME280;10858;42.714;23.180;2023-04-27T04:20:12;94229.97;;;10.16;47.77
21395;BME280;10858;42.714;23.180;2023-04-27T04:22:38;94236.72;;;10.78;47.15
21395;BME280;10858;42.714;23.180;2023-04-27T04:25:05;94241.00;;;11.36;45.30
21395;BME280;10858;42.714;23.180;2023-04-27T04:27:31;94236.84;;;11.61;44.45
21395;BME280;10858;42.714;23.180;2023-04-27T04:29:58;94237.94;;;12.14;43.74
21395;BME280;10858;42.714;23.180;2023-04-27T04:32:25;94240.03;;;12.38;42.74
21395;BME280;10858;42.714;23.180;2023-04-27T04:34:54;94242.00;;;11.16;43.93
21395;BME280;10858;42.714;23.180;2023-04-27T04:37:20;94245.97;;;11.58;44.62
21395;BME280;10858;42.714;23.180;2023-04-27T04:39:48;94254.44;;;11.16;43.93
21395;BME280;10858;42.714;23.180;2023-04-27T04:42:14;94251.66;;;11.63;44.43
21395;BME280;10858;42.714;23.180;2023-04-27T04:44:40;94248.88;;;12.56;42.97
21395;BME280;10858;42.714;23.180;2023-04-27T04:47:07;94253.44;;;13.34;40.60
21395;BME280;10858;42.714;23.180;2023-04-27T04:49:35;94242.41;;;14.06;39.68
21395;BME280;10858;42.714;23.180;2023-04-27T04:52:01;94244.44;;;14.12;37.91
21395;BME280;10858;42.714;23.180;2023-04-27T04:54:29;94258.59;;;13.79;38.72
21395;BME280;10858;42.714;23.180;2023-04-27T04:56:55;94256.19;;;13.68;39.62
21395;BME280;10858;42.714;23.180;2023-04-27T04:59:23;94263.72;;;12.76;40.30
21395;BME280;10858;42.714;23.180;2023-04-27T05:01:50;94261.84;;;11.12;43.29
21395;BME280;10858;42.714;23.180;2023-04-27T05:04:20;94264.03;;;10.40;44.91
21395;BME280;10858;42.714;23.180;2023-04-27T05:06:46;94267.84;;;10.07;46.70
21395;BME280;10858;42.714;23.180;2023-04-27T05:09:13;94257.91;;;12.63;43.41
21395;BME280;10858;42.714;23.180;2023-04-27T05:11:39;94271.44;;;15.00;38.58
21395;BME280;10858;42.714;23.180;2023-04-27T05:14:05;94284.03;;;15.88;36.67
21395;BME280;10858;42.714;23.180;2023-04-27T05:16:31;94279.81;;;13.62;40.81
21395;BME280;10858;42.714;23.180;2023-04-27T05:18:58;94278.47;;;12.88;43.27
21395;BME280;10858;42.714;23.180;2023-04-27T05:21:24;94274.41;;;12.22;44.16
21395;BME280;10858;42.714;23.180;2023-04-27T05:23:50;94291.19;;;11.30;46.08
21395;BME280;10858;42.714;23.180;2023-04-27T05:26:17;94286.72;;;10.92;46.88
21395;BME280;10858;42.714;23.180;2023-04-27T05:28:44;94288.13;;;10.96;47.24
21395;BME280;10858;42.714;23.180;2023-04-27T05:31:11;94278.91;;;10.71;47.32
21395;BME280;10858;42.714;23.180;2023-04-27T05:33:38;94282.59;;;10.31;47.86
21395;BME280;10858;42.714;23.180;2023-04-27T05:36:04;94288.81;;;9.80;49.05
21395;BME280;10858;42.714;23.180;2023-04-27T05:38:31;94285.56;;;9.67;48.70
21395;BME280;10858;42.714;23.180;2023-04-27T05:40:58;94297.97;;;9.46;50.73
21395;BME280;10858;42.714;23.180;2023-04-27T05:43:25;94286.06;;;9.61;49.03
21395;BME280;10858;42.714;23.180;2023-04-27T05:45:51;94298.94;;;9.66;49.45
21395;BME280;10858;42.714;23.180;2023-04-27T05:48:18;94297.06;;;9.36;49.55
21395;BME280;10858;42.714;23.180;2023-04-27T05:50:45;94299.75;;;9.15;49.28
21395;BME280;10858;42.714;23.180;2023-04-27T05:53:14;94291.22;;;9.63;49.71
21395;BME280;10858;42.714;23.180;2023-04-27T05:55:41;94303.56;;;10.03;48.56
21395;BME280;10858;42.714;23.180;2023-04-27T05:58:07;94305.53;;;9.30;49.02
21395;BME280;10858;42.714;23.180;2023-04-27T06:00:33;94310.16;;;9.58;48.66
21395;BME280;10858;42.714;23.180;2023-04-27T06:03:01;94308.78;;;10.64;47.73
21395;BME280;10858;42.714;23.180;2023-04-27T06:05:27;94313.38;;;10.90;46.48
21395;BME280;10858;42.714;23.180;2023-04-27T06:07:53;94306.47;;;11.64;45.58
21395;BME280;10858;42.714;23.180;2023-04-27T06:10:20;94306.56;;;11.26;45.21
21395;BME280;10858;42.714;23.180;2023-04-27T06:12:46;94308.19;;;11.37;43.71
21395;BME280;10858;42.714;23.180;2023-04-27T06:15:13;94307.66;;;11.52;44.76
21395;BME280;10858;42.714;23.180;2023-04-27T06:17:39;94301.44;;;11.80;43.93
21395;BME280;10858;42.714;23.180;2023-04-27T06:20:08;94304.78;;;12.19;43.91
21395;BME280;10858;42.714;23.180;2023-04-27T06:22:35;94296.25;;;12.43;43.21
21395;BME280;10858;42.714;23.180;2023-04-27T06:25:05;94293.38;;;12.81;41.28
21395;BME280;10858;42.714;23.180;2023-04-27T06:27:31;94293.72;;;13.13;41.16
21395;BME280;10858;42.714;23.180;2023-04-27T06:29:58;94292.41;;;12.01;41.50
21395;BME280;10858;42.714;23.180;2023-04-27T06:32:24;94289.25;;;12.24;43.39
21395;BME280;10858;42.714;23.180;2023-04-27T06:34:51;94287.59;;;12.68;42.87
21395;BME280;10858;42.714;23.180;2023-04-27T06:37:17;94294.03;;;13.10;41.58
21395;BME280;10858;42.714;23.180;2023-04-27T06:39:44;94302.50;;;13.67;40.26
21395;BME280;10858;42.714;23.180;2023-04-27T06:42:10;94275.41;;;14.30;37.64
21395;BME280;10858;42.714;23.180;2023-04-27T06:44:37;94285.03;;;13.98;38.69
21395;BME280;10858;42.714;23.180;2023-04-27T06:47:03;94284.75;;;14.84;38.06
21395;BME280;10858;42.714;23.180;2023-04-27T06:49:30;94284.31;;;13.88;38.89
21395;BME280;10858;42.714;23.180;2023-04-27T06:51:56;94286.75;;;12.85;40.71
21395;BME280;10858;42.714;23.180;2023-04-27T06:54:22;94290.69;;;12.09;42.68
21395;BME280;10858;42.714;23.180;2023-04-27T06:56:49;94291.13;;;11.49;43.75
21395;BME280;10858;42.714;23.180;2023-04-27T06:59:15;94294.22;;;11.35;44.67
21395;BME280;10858;42.714;23.180;2023-04-27T07:01:41;94283.28;;;11.66;43.05
21395;BME280;10858;42.714;23.180;2023-04-27T07:04:07;94282.84;;;11.61;43.52
21395;BME280;10858;42.714;23.180;2023-04-27T07:06:34;94283.28;;;11.76;42.98
21395;BME280;10858;42.714;23.180;2023-04-27T07:09:00;94286.72;;;12.23;42.36
21395;BME280;10858;42.714;23.180;2023-04-27T07:11:26;94280.91;;;12.64;42.43
21395;BME280;10858;42.714;23.180;2023-04-27T07:13:53;94280.75;;;12.83;40.91
21395;BME280;10858;42.714;23.180;2023-04-27T07:16:19;94285.28;;;13.18;41.49
21395;BME280;10858;42.714;23.180;2023-04-27T07:18:45;94287.28;;;12.71;40.59
21395;BME280;10858;42.714;23.180;2023-04-27T07:21:12;94291.59;;;12.27;40.25
21395;BME280;10858;42.714;23.180;2023-04-27T07:23:39;94294.00;;;12.48;41.97
21395;BME280;10858;42.714;23.180;2023-04-27T07:26:06;94297.88;;;12.80;40.71
21395;BME280;10858;42.714;23.180;2023-04-27T07:28:33;94289.41;;;12.85;39.77
21395;BME280;10858;42.714;23.180;2023-04-27T07:31:06;94286.38;;;13.50;39.06
21395;BME280;10858;42.714;23.180;2023-04-27T07:33:33;94293.72;;;13.48;39.81
21395;BME280;10858;42.714;23.180;2023-04-27T07:36:01;94283.09;;;14.91;37.43
21395;BME280;10858;42.714;23.180;2023-04-27T07:38:27;94285.13;;;14.47;37.48
21395;BME280;10858;42.714;23.180;2023-04-27T07:40:56;94286.63;;;14.42;36.73
21395;BME280;10858;42.714;23.180;2023-04-27T07:43:23;94286.13;;;14.96;38.01
21395;BME280;10858;42.714;23.180;2023-04-27T07:45:51;94288.88;;;15.93;34.00
21395;BME280;10858;42.714;23.180;2023-04-27T07:48:19;94284.44;;;14.87;36.47
21395;BME280;10858;42.714;23.180;2023-04-27T07:50:45;94286.84;;;14.57;38.57
21395;BME280;10858;42.714;23.180;2023-04-27T07:53:11;94279.19;;;13.69;38.94
21395;BME280;10858;42.714;23.180;2023-04-27T07:55:38;94284.41;;;14.04;38.94
21395;BME280;10858;42.714;23.180;2023-04-27T07:58:04;94282.50;;;15.29;36.71
21395;BME280;10858;42.714;23.180;2023-04-27T08:00:31;94292.88;;;17.74;35.53
21395;BME280;10858;42.714;23.180;2023-04-27T08:02:57;94287.09;;;18.66;32.12
21395;BME280;10858;42.714;23.180;2023-04-27T08:05:24;94289.22;;;16.61;34.72
21395;BME280;10858;42.714;23.180;2023-04-27T08:07:50;94274.34;;;16.50;33.75
21395;BME280;10858;42.714;23.180;2023-04-27T08:10:18;94293.41;;;15.76;35.18
21395;BME280;10858;42.714;23.180;2023-04-27T08:12:45;94297.56;;;15.39;36.91
21395;BME280;10858;42.714;23.180;2023-04-27T08:15:11;94295.91;;;15.78;34.06
21395;BME280;10858;42.714;23.180;2023-04-27T08:17:38;94299.25;;;15.72;34.55
21395;BME280;10858;42.714;23.180;2023-04-27T08:20:08;94290.72;;;15.84;35.29
21395;BME280;10858;42.714;23.180;2023-04-27T08:22:39;94282.00;;;15.34;35.92
21395;BME280;10858;42.714;23.180;2023-04-27T08:25:06;94291.53;;;16.01;34.09
21395;BME280;10858;42.714;23.180;2023-04-27T08:27:37;94289.13;;;17.08;33.74
21395;BME280;10858;42.714;23.180;2023-04-27T08:30:03;94281.84;;;17.47;32.24
21395;BME280;10858;42.714;23.180;2023-04-27T08:32:30;94287.28;;;18.50;30.49
21395;BME280;10858;42.714;23.180;2023-04-27T08:34:56;94287.81;;;17.57;30.59
21395;BME280;10858;42.714;23.180;2023-04-27T08:37:23;94281.94;;;17.08;32.37
21395;BME280;10858;42.714;23.180;2023-04-27T08:39:49;94280.16;;;18.57;31.94
21395;BME280;10858;42.714;23.180;2023-04-27T08:42:15;94278.19;;;17.85;29.36
21395;BME280;10858;42.714;23.180;2023-04-27T08:44:43;94275.78;;;18.56;32.36
21395;BME280;10858;42.714;23.180;2023-04-27T08:47:10;94281.91;;;19.30;29.04
21395;BME280;10858;42.714;23.180;2023-04-27T08:49:37;94287.00;;;19.61;29.31
21395;BME280;10858;42.714;23.180;2023-04-27T08:52:09;94287.47;;;18.63;30.76
21395;BME280;10858;42.714;23.180;2023-04-27T08:54:37;94288.16;;;19.16;31.61
21395;BME280;10858;42.714;23.180;2023-04-27T08:57:09;94284.56;;;19.66;31.06
21395;BME280;10858;42.714;23.180;2023-04-27T08:59:35;94279.78;;;18.75;30.38
21395;BME280;10858;42.714;23.180;2023-04-27T09:02:03;94282.06;;;19.28;29.38
21395;BME280;10858;42.714;23.180;2023-04-27T09:04:37;94277.97;;;21.13;27.65
21395;BME280;10858;42.714;23.180;2023-04-27T09:07:14;94281.31;;;18.40;30.11
21395;BME280;10858;42.714;23.180;2023-04-27T09:09:40;94278.16;;;16.94;32.76
21395;BME280;10858;42.714;23.180;2023-04-27T09:12:17;94282.19;;;16.44;32.46
21395;BME280;10858;42.714;23.180;2023-04-27T09:14:56;94275.03;;;16.36;34.19
21395;BME280;10858;42.714;23.180;2023-04-27T09:17:27;94277.53;;;16.84;33.33
21395;BME280;10858;42.714;23.180;2023-04-27T09:22:46;94283.34;;;15.86;33.61
21395;BME280;10858;42.714;23.180;2023-04-27T09:25:31;94272.50;;;15.48;35.39
21395;BME280;10858;42.714;23.180;2023-04-27T09:27:59;94274.84;;;15.83;35.53
21395;BME280;10858;42.714;23.180;2023-04-27T09:30:28;94269.16;;;15.46;35.72
21395;BME280;10858;42.714;23.180;2023-04-27T09:32:57;94261.94;;;18.16;31.44
21395;BME280;10858;42.714;23.180;2023-04-27T09:35:31;94267.94;;;18.70;34.35
21395;BME280;10858;42.714;23.180;2023-04-27T09:37:59;94271.16;;;18.80;31.42
21395;BME280;10858;42.714;23.180;2023-04-27T09:40:27;94265.88;;;17.31;30.66
21395;BME280;10858;42.714;23.180;2023-04-27T09:42:59;94261.00;;;17.03;32.87
21395;BME280;10858;42.714;23.180;2023-04-27T09:45:28;94244.50;;;18.63;31.30
21395;BME280;10858;42.714;23.180;2023-04-27T09:47:55;94252.38;;;19.01;28.81
21395;BME280;10858;42.714;23.180;2023-04-27T09:50:21;94248.59;;;19.52;30.06
21395;BME280;10858;42.714;23.180;2023-04-27T09:52:47;94240.50;;;20.90;27.71
21395;BME280;10858;42.714;23.180;2023-04-27T10:08:58;94237.75;;;23.45;24.77
21395;BME280;10858;42.714;23.180;2023-04-27T10:11:43;94233.25;;;20.50;24.40
21395;BME280;10858;42.714;23.180;2023-04-27T10:14:15;94229.47;;;20.17;26.59
21395;BME280;10858;42.714;23.180;2023-04-27T10:16:53;94237.09;;;19.37;27.76
21395;BME280;10858;42.714;23.180;2023-04-27T10:19:24;94234.97;;;18.97;27.58
21395;BME280;10858;42.714;23.180;2023-04-27T10:22:00;94239.41;;;17.50;28.87
21395;BME280;10858;42.714;23.180;2023-04-27T10:24:40;94235.94;;;17.42;28.75
21395;BME280;10858;42.714;23.180;2023-04-27T10:27:09;94231.50;;;18.09;29.32
21395;BME280;10858;42.714;23.180;2023-04-27T10:29:41;94233.88;;;19.97;27.17
21395;BME280;10858;42.714;23.180;2023-04-27T10:32:10;94226.41;;;22.53;24.99
21395;BME280;10858;42.714;23.180;2023-04-27T10:34:37;94229.28;;;23.98;23.84
21395;BME280;10858;42.714;23.180;2023-04-27T10:37:08;94229.16;;;22.08;23.13
21395;BME280;10858;42.714;23.180;2023-04-27T10:39:40;94230.69;;;18.37;29.20
21395;BME280;10858;42.714;23.180;2023-04-27T10:42:07;94239.25;;;17.89;30.25
21395;BME280;10858;42.714;23.180;2023-04-27T10:44:35;94233.91;;;17.44;29.18
21395;BME280;10858;42.714;23.180;2023-04-27T10:47:15;94226.19;;;19.66;28.37
21395;BME280;10858;42.714;23.180;2023-04-27T10:49:42;94230.09;;;20.40;27.23
21395;BME280;10858;42.714;23.180;2023-04-27T10:52:08;94233.34;;;21.10;26.73
21395;BME280;10858;42.714;23.180;2023-04-27T10:54:35;94236.28;;;21.15;24.89
21395;BME280;10858;42.714;23.180;2023-04-27T10:57:06;94231.03;;;22.14;25.13
21395;BME280;10858;42.714;23.180;2023-04-27T10:59:34;94246.13;;;23.37;23.24
21395;BME280;10858;42.714;23.180;2023-04-27T11:02:00;94244.22;;;23.44;24.73
21395;BME280;10858;42.714;23.180;2023-04-27T11:04:39;94227.66;;;22.64;23.06
21395;BME280;10858;42.714;23.180;2023-04-27T11:07:07;94227.94;;;22.10;24.09
21395;BME280;10858;42.714;23.180;2023-04-27T11:09:38;94237.03;;;20.56;26.13
21395;BME280;10858;42.714;23.180;2023-04-27T11:12:10;94234.66;;;19.06;28.45
21395;BME280;10858;42.714;23.180;2023-04-27T11:14:37;94233.88;;;18.04;28.91
21395;BME280;10858;42.714;23.180;2023-04-27T11:17:04;94238.25;;;18.05;28.84
21395;BME280;10858;42.714;23.180;2023-04-27T11:19:30;94227.56;;;17.82;31.58
21395;BME280;10858;42.714;23.180;2023-04-27T11:22:06;94235.63;;;16.91;29.94
21395;BME280;10858;42.714;23.180;2023-04-27T11:24:33;94240.84;;;16.54;31.00
21395;BME280;10858;42.714;23.180;2023-04-27T11:26:59;94236.31;;;16.08;31.86
21395;BME280;10858;42.714;23.180;2023-04-27T11:29:25;94234.81;;;15.97;32.60
21395;BME280;10858;42.714;23.180;2023-04-27T11:32:02;94236.22;;;16.79;33.95
21395;BME280;10858;42.714;23.180;2023-04-27T11:34:29;94239.13;;;16.92;32.53
21395;BME280;10858;42.714;23.180;2023-04-27T11:37:05;94239.41;;;17.05;31.60
21395;BME280;10858;42.714;23.180;2023-04-27T11:39:37;94242.94;;;17.88;30.13
21395;BME280;10858;42.714;23.180;2023-04-27T11:42:21;94241.41;;;17.48;31.99
21395;BME280;10858;42.714;23.180;2023-04-27T11:44:58;94231.63;;;16.87;29.97
21395;BME280;10858;42.714;23.180;2023-04-27T11:47:26;94234.13;;;16.11;33.08
21395;BME280;10858;42.714;23.180;2023-04-27T11:49:55;94242.91;;;15.65;32.91
21395;BME280;10858;42.714;23.180;2023-04-27T11:54:55;94249.72;;;15.92;33.93
21395;BME280;10858;42.714;23.180;2023-04-27T11:57:28;94248.25;;;15.81;34.02
21395;BME280;10858;42.714;23.180;2023-04-27T11:59:56;94246.25;;;15.51;34.76
21395;BME280;10858;42.714;23.180;2023-04-27T12:02:28;94241.44;;;16.72;32.79
21395;BME280;10858;42.714;23.180;2023-04-27T12:04:57;94240.53;;;17.56;31.18
21395;BME280;10858;42.714;23.180;2023-04-27T12:07:23;94239.97;;;17.23;30.21
21395;BME280;10858;42.714;23.180;2023-04-27T12:09:50;94252.06;;;16.88;30.80
21395;BME280;10858;42.714;23.180;2023-04-27T12:12:16;94252.44;;;15.35;34.23
21395;BME280;10858;42.714;23.180;2023-04-27T12:14:47;94250.00;;;14.68;33.50
21395;BME280;10858;42.714;23.180;2023-04-27T12:17:14;94239.72;;;15.13;34.54
21395;BME280;10858;42.714;23.180;2023-04-27T12:19:40;94243.94;;;15.56;34.78
21395;BME280;10858;42.714;23.180;2023-04-27T12:22:06;94246.56;;;16.43;32.36
21395;BME280;10858;42.714;23.180;2023-04-27T12:24:33;94263.25;;;16.06;34.11
21395;BME280;10858;42.714;23.180;2023-04-27T12:27:00;94247.19;;;16.61;31.89
21395;BME280;10858;42.714;23.180;2023-04-27T12:29:28;94251.59;;;17.08;32.52
21395;BME280;10858;42.714;23.180;2023-04-27T12:31:54;94246.75;;;17.56;32.03
21395;BME280;10858;42.714;23.180;2023-04-27T12:34:20;94248.38;;;18.76;31.92
21395;BME280;10858;42.714;23.180;2023-04-27T12:36:47;94240.03;;;19.63;28.34
21395;BME280;10858;42.714;23.180;2023-04-27T12:39:15;94249.53;;;19.59;27.75
21395;BME280;10858;42.714;23.180;2023-04-27T12:41:46;94246.91;;;19.93;28.33
21395;BME280;10858;42.714;23.180;2023-04-27T12:44:13;94245.16;;;19.22;27.38
21395;BME280;10858;42.714;23.180;2023-04-27T12:46:40;94243.16;;;17.64;29.32
21395;BME280;10858;42.714;23.180;2023-04-27T12:49:08;94242.59;;;18.06;30.04
21395;BME280;10858;42.714;23.180;2023-04-27T12:51:35;94235.59;;;18.19;28.19
21395;BME280;10858;42.714;23.180;2023-04-27T12:54:08;94235.41;;;18.64;27.67
21395;BME280;10858;42.714;23.180;2023-04-27T12:56:35;94237.22;;;19.71;29.45
21395;BME280;10858;42.714;23.180;2023-04-27T12:59:01;94236.44;;;20.05;27.36
21395;BME280;10858;42.714;23.180;2023-04-27T13:01:28;94231.88;;;20.67;27.92
21395;BME280;10858;42.714;23.180;2023-04-27T13:03:58;94239.34;;;19.33;28.88
21395;BME280;10858;42.714;23.180;2023-04-27T13:06:26;94233.88;;;19.12;28.26
21395;BME280;10858;42.714;23.180;2023-04-27T13:08:53;94235.94;;;17.64;30.59
21395;BME280;10858;42.714;23.180;2023-04-27T13:11:20;94237.09;;;16.71;31.74
21395;BME280;10858;42.714;23.180;2023-04-27T13:13:46;94241.41;;;16.80;31.21